sensor_id;sensor_type;location;lat;lon;timestamp;P1;durP1;ratioP1;P2;durP2;ratioP2
6388;SDS011;3227;42.654;23.360;2023-10-19T00:00:04;11.57;;;7.03;;
6388;SDS011;3227;42.654;23.360;2023-10-19T00:02:45;11.73;;;7.07;;
6388;SDS011;3227;42.654;23.360;2023-10-19T00:05:13;11.90;;;7.37;;
6388;SDS011;3227;42.654;23.360;2023-10-19T00:07:40;12.13;;;6.50;;
6388;SDS011;3227;42.654;23.360;2023-10-19T00:10:08;12.93;;;8.00;;
6388;SDS011;3227;42.654;23.360;2023-10-19T00:12:34;12.00;;;7.53;;
6388;SDS011;3227;42.654;23.360;2023-10-19T00:15:03;11.73;;;7.10;;
6388;SDS011;3227;42.654;23.360;2023-10-19T00:17:31;12.17;;;7.20;;
6388;SDS011;3227;42.654;23.360;2023-10-19T00:19:58;13.00;;;7.90;;
6388;SDS011;3227;42.654;23.360;2023-10-19T00:22:49;12.00;;;7.43;;
6388;SDS011;3227;42.654;23.360;2023-10-19T00:25:18;12.00;;;7.37;;
6388;SDS011;3227;42.654;23.360;2023-10-19T00:27:48;11.60;;;7.00;;
6388;SDS011;3227;42.654;23.360;2023-10-19T00:30:17;10.80;;;6.43;;
6388;SDS011;3227;42.654;23.360;2023-10-19T00:32:48;12.00;;;6.60;;
6388;SDS011;3227;42.654;23.360;2023-10-19T00:35:16;14.43;;;7.50;;
6388;SDS011;3227;42.654;23.360;2023-10-19T00:37:54;12.10;;;7.73;;
6388;SDS011;3227;42.654;23.360;2023-10-19T00:40:37;12.50;;;6.77;;
6388;SDS011;3227;42.654;23.360;2023-10-19T00:43:06;10.83;;;6.43;;
6388;SDS011;3227;42.654;23.360;2023-10-19T00:45:36;12.23;;;7.17;;
6388;SDS011;3227;42.654;23.360;2023-10-19T00:48:06;12.07;;;6.70;;
6388;SDS011;3227;42.654;23.360;2023-10-19T00:50:36;12.83;;;7.37;;
6388;SDS011;3227;42.654;23.360;2023-10-19T00:53:04;13.73;;;6.77;;
6388;SDS011;3227;42.654;23.360;2023-10-19T00:55:33;10.13;;;6.30;;
6388;SDS011;3227;42.654;23.360;2023-10-19T00:58:01;10.93;;;5.90;;
6388;SDS011;3227;42.654;23.360;2023-10-19T01:00:34;11.43;;;6.57;;
6388;SDS011;3227;42.654;23.360;2023-10-19T01:03:10;11.73;;;6.90;;
6388;SDS011;3227;42.654;23.360;2023-10-19T01:05:43;12.53;;;6.63;;
6388;SDS011;3227;42.654;23.360;2023-10-19T01:08:13;11.00;;;6.40;;
6388;SDS011;3227;42.654;23.360;2023-10-19T01:10:49;12.33;;;6.77;;
6388;SDS011;3227;42.654;23.360;2023-10-19T01:13:19;11.20;;;6.87;;
6388;SDS011;3227;42.654;23.360;2023-10-19T01:15:54;13.87;;;7.03;;
6388;SDS011;3227;42.654;23.360;2023-10-19T01:18:21;11.30;;;6.90;;
6388;SDS011;3227;42.654;23.360;2023-10-19T01:20:47;13.30;;;6.70;;
6388;SDS011;3227;42.654;23.360;2023-10-19T01:23:18;14.20;;;7.13;;
6388;SDS011;3227;42.654;23.360;2023-10-19T01:25:51;12.30;;;6.77;;
6388;SDS011;3227;42.654;23.360;2023-10-19T01:28:26;12.17;;;6.53;;
6388;SDS011;3227;42.654;23.360;2023-10-19T01:31:07;11.87;;;7.23;;
6388;SDS011;3227;42.654;23.360;2023-10-19T01:33:39;10.87;;;6.63;;
6388;SDS011;3227;42.654;23.360;2023-10-19T01:36:22;11.23;;;7.20;;
6388;SDS011;3227;42.654;23.360;2023-10-19T01:38:53;12.37;;;6.87;;
6388;SDS011;3227;42.654;23.360;2023-10-19T01:41:20;13.20;;;7.00;;
6388;SDS011;3227;42.654;23.360;2023-10-19T01:43:49;11.33;;;7.30;;
6388;SDS011;3227;42.654;23.360;2023-10-19T01:46:19;10.93;;;6.43;;
6388;SDS011;3227;42.654;23.360;2023-10-19T01:48:51;11.73;;;6.83;;
6388;SDS011;3227;42.654;23.360;2023-10-19T01:51:21;11.33;;;6.60;;
6388;SDS011;3227;42.654;23.360;2023-10-19T01:53:50;12.97;;;6.97;;
6388;SDS011;3227;42.654;23.360;2023-10-19T01:56:17;10.40;;;6.17;;
6388;SDS011;3227;42.654;23.360;2023-10-19T01:58:46;13.80;;;6.83;;
6388;SDS011;3227;42.654;23.360;2023-10-19T02:01:13;9.50;;;6.43;;
6388;SDS011;3227;42.654;23.360;2023-10-19T02:03:45;12.50;;;7.83;;
6388;SDS011;3227;42.654;23.360;2023-10-19T02:06:13;11.07;;;6.87;;
6388;SDS011;3227;42.654;23.360;2023-10-19T02:08:45;12.93;;;7.10;;
6388;SDS011;3227;42.654;23.360;2023-10-19T02:11:13;11.47;;;6.90;;
6388;SDS011;3227;42.654;23.360;2023-10-19T02:13:44;11.30;;;7.03;;
6388;SDS011;3227;42.654;23.360;2023-10-19T02:16:12;11.37;;;7.30;;
6388;SDS011;3227;42.654;23.360;2023-10-19T02:18:41;11.53;;;7.20;;
6388;SDS011;3227;42.654;23.360;2023-10-19T02:21:07;11.90;;;6.97;;
6388;SDS011;3227;42.654;23.360;2023-10-19T02:23:37;11.73;;;6.60;;
6388;SDS011;3227;42.654;23.360;2023-10-19T02:26:08;9.87;;;6.70;;
6388;SDS011;3227;42.654;23.360;2023-10-19T02:28:38;12.23;;;6.93;;
6388;SDS011;3227;42.654;23.360;2023-10-19T02:31:05;15.37;;;7.00;;
6388;SDS011;3227;42.654;23.360;2023-10-19T02:33:43;12.87;;;6.80;;
6388;SDS011;3227;42.654;23.360;2023-10-19T02:36:11;12.27;;;7.23;;
6388;SDS011;3227;42.654;23.360;2023-10-19T02:38:41;12.20;;;6.87;;
6388;SDS011;3227;42.654;23.360;2023-10-19T02:41:09;12.77;;;6.63;;
6388;SDS011;3227;42.654;23.360;2023-10-19T02:43:36;12.00;;;6.87;;
6388;SDS011;3227;42.654;23.360;2023-10-19T02:46:03;12.33;;;6.97;;
6388;SDS011;3227;42.654;23.360;2023-10-19T02:48:32;11.13;;;6.33;;
6388;SDS011;3227;42.654;23.360;2023-10-19T02:50:57;12.03;;;6.67;;
6388;SDS011;3227;42.654;23.360;2023-10-19T02:53:33;13.63;;;7.00;;
6388;SDS011;3227;42.654;23.360;2023-10-19T02:59:09;10.87;;;6.43;;
6388;SDS011;3227;42.654;23.360;2023-10-19T03:01:37;14.90;;;7.10;;
6388;SDS011;3227;42.654;23.360;2023-10-19T03:04:04;13.60;;;7.37;;
6388;SDS011;3227;42.654;23.360;2023-10-19T03:06:30;14.20;;;8.03;;
6388;SDS011;3227;42.654;23.360;2023-10-19T03:08:58;13.23;;;7.50;;
6388;SDS011;3227;42.654;23.360;2023-10-19T03:11:26;12.77;;;7.60;;
6388;SDS011;3227;42.654;23.360;2023-10-19T03:13:53;13.33;;;7.80;;
6388;SDS011;3227;42.654;23.360;2023-10-19T03:16:20;13.80;;;7.63;;
6388;SDS011;3227;42.654;23.360;2023-10-19T03:18:50;12.77;;;7.77;;
6388;SDS011;3227;42.654;23.360;2023-10-19T03:21:16;12.67;;;7.33;;
6388;SDS011;3227;42.654;23.360;2023-10-19T03:23:44;12.43;;;7.97;;
6388;SDS011;3227;42.654;23.360;2023-10-19T03:26:10;15.97;;;7.97;;
6388;SDS011;3227;42.654;23.360;2023-10-19T03:28:53;12.53;;;7.00;;
6388;SDS011;3227;42.654;23.360;2023-10-19T03:31:20;12.83;;;7.80;;
6388;SDS011;3227;42.654;23.360;2023-10-19T03:33:51;14.80;;;7.87;;
6388;SDS011;3227;42.654;23.360;2023-10-19T03:36:21;14.60;;;7.80;;
6388;SDS011;3227;42.654;23.360;2023-10-19T03:38:48;11.83;;;7.00;;
6388;SDS011;3227;42.654;23.360;2023-10-19T03:41:16;12.70;;;7.63;;
6388;SDS011;3227;42.654;23.360;2023-10-19T03:43:47;15.03;;;8.00;;
6388;SDS011;3227;42.654;23.360;2023-10-19T03:46:16;13.93;;;7.37;;
6388;SDS011;3227;42.654;23.360;2023-10-19T03:48:54;11.43;;;7.50;;
6388;SDS011;3227;42.654;23.360;2023-10-19T03:51:24;12.13;;;7.63;;
6388;SDS011;3227;42.654;23.360;2023-10-19T03:53:52;11.80;;;7.43;;
6388;SDS011;3227;42.654;23.360;2023-10-19T03:56:20;14.70;;;6.90;;
6388;SDS011;3227;42.654;23.360;2023-10-19T03:58:49;11.00;;;7.00;;
6388;SDS011;3227;42.654;23.360;2023-10-19T04:01:16;15.40;;;7.73;;
6388;SDS011;3227;42.654;23.360;2023-10-19T04:03:44;14.07;;;7.50;;
6388;SDS011;3227;42.654;23.360;2023-10-19T04:06:13;13.57;;;7.80;;
6388;SDS011;3227;42.654;23.360;2023-10-19T04:08:40;14.70;;;8.20;;
6388;SDS011;3227;42.654;23.360;2023-10-19T04:11:10;15.97;;;7.87;;
6388;SDS011;3227;42.654;23.360;2023-10-19T04:13:46;12.37;;;7.00;;
6388;SDS011;3227;42.654;23.360;2023-10-19T04:16:18;12.67;;;7.30;;
6388;SDS011;3227;42.654;23.360;2023-10-19T04:18:45;12.30;;;6.67;;
6388;SDS011;3227;42.654;23.360;2023-10-19T04:21:14;13.97;;;7.77;;
6388;SDS011;3227;42.654;23.360;2023-10-19T04:23:42;12.70;;;6.80;;
6388;SDS011;3227;42.654;23.360;2023-10-19T04:26:09;13.57;;;7.20;;
6388;SDS011;3227;42.654;23.360;2023-10-19T04:28:40;19.87;;;8.33;;
6388;SDS011;3227;42.654;23.360;2023-10-19T04:31:15;14.37;;;6.90;;
6388;SDS011;3227;42.654;23.360;2023-10-19T04:33:44;12.03;;;7.40;;
6388;SDS011;3227;42.654;23.360;2023-10-19T04:36:16;18.10;;;7.57;;
6388;SDS011;3227;42.654;23.360;2023-10-19T04:38:46;14.50;;;7.50;;
6388;SDS011;3227;42.654;23.360;2023-10-19T04:41:13;14.67;;;7.70;;
6388;SDS011;3227;42.654;23.360;2023-10-19T04:43:40;13.83;;;8.80;;
6388;SDS011;3227;42.654;23.360;2023-10-19T04:46:13;23.10;;;12.10;;
6388;SDS011;3227;42.654;23.360;2023-10-19T04:48:40;26.63;;;11.57;;
6388;SDS011;3227;42.654;23.360;2023-10-19T04:51:07;18.37;;;9.70;;
6388;SDS011;3227;42.654;23.360;2023-10-19T04:53:36;15.80;;;9.23;;
6388;SDS011;3227;42.654;23.360;2023-10-19T04:56:04;13.67;;;8.07;;
6388;SDS011;3227;42.654;23.360;2023-10-19T04:58:34;15.67;;;8.17;;
6388;SDS011;3227;42.654;23.360;2023-10-19T05:01:01;12.33;;;7.53;;
6388;SDS011;3227;42.654;23.360;2023-10-19T05:03:29;19.73;;;9.67;;
6388;SDS011;3227;42.654;23.360;2023-10-19T05:05:56;16.73;;;8.67;;
6388;SDS011;3227;42.654;23.360;2023-10-19T05:08:23;19.00;;;8.60;;
6388;SDS011;3227;42.654;23.360;2023-10-19T05:10:54;15.50;;;8.17;;
6388;SDS011;3227;42.654;23.360;2023-10-19T05:13:22;24.23;;;10.07;;
6388;SDS011;3227;42.654;23.360;2023-10-19T05:15:50;16.10;;;8.50;;
6388;SDS011;3227;42.654;23.360;2023-10-19T05:18:18;14.87;;;8.13;;
6388;SDS011;3227;42.654;23.360;2023-10-19T05:20:45;20.00;;;9.43;;
6388;SDS011;3227;42.654;23.360;2023-10-19T05:23:12;18.10;;;10.27;;
6388;SDS011;3227;42.654;23.360;2023-10-19T05:25:39;19.50;;;9.83;;
6388;SDS011;3227;42.654;23.360;2023-10-19T05:28:07;22.53;;;10.33;;
6388;SDS011;3227;42.654;23.360;2023-10-19T05:30:35;15.37;;;8.73;;
6388;SDS011;3227;42.654;23.360;2023-10-19T05:33:02;16.03;;;8.77;;
6388;SDS011;3227;42.654;23.360;2023-10-19T05:35:31;21.80;;;12.53;;
6388;SDS011;3227;42.654;23.360;2023-10-19T05:38:00;19.30;;;10.90;;
6388;SDS011;3227;42.654;23.360;2023-10-19T05:40:27;15.00;;;7.57;;
6388;SDS011;3227;42.654;23.360;2023-10-19T05:42:55;12.43;;;7.50;;
6388;SDS011;3227;42.654;23.360;2023-10-19T05:45:27;14.37;;;7.27;;
6388;SDS011;3227;42.654;23.360;2023-10-19T05:48:04;15.20;;;9.10;;
6388;SDS011;3227;42.654;23.360;2023-10-19T05:50:32;16.70;;;7.77;;
6388;SDS011;3227;42.654;23.360;2023-10-19T05:52:59;16.50;;;7.37;;
6388;SDS011;3227;42.654;23.360;2023-10-19T05:55:26;10.77;;;5.87;;
6388;SDS011;3227;42.654;23.360;2023-10-19T05:57:54;10.43;;;6.40;;
6388;SDS011;3227;42.654;23.360;2023-10-19T06:00:21;7.93;;;5.17;;
6388;SDS011;3227;42.654;23.360;2023-10-19T06:02:52;8.13;;;4.93;;
6388;SDS011;3227;42.654;23.360;2023-10-19T06:05:19;6.73;;;3.97;;
6388;SDS011;3227;42.654;23.360;2023-10-19T06:07:51;9.87;;;4.03;;
6388;SDS011;3227;42.654;23.360;2023-10-19T06:10:18;7.60;;;4.47;;
6388;SDS011;3227;42.654;23.360;2023-10-19T06:12:47;9.73;;;5.10;;
6388;SDS011;3227;42.654;23.360;2023-10-19T06:15:16;9.82;;;5.45;;
6388;SDS011;3227;42.654;23.360;2023-10-19T06:17:46;12.87;;;5.20;;
6388;SDS011;3227;42.654;23.360;2023-10-19T06:20:15;7.53;;;4.40;;
6388;SDS011;3227;42.654;23.360;2023-10-19T06:22:52;8.93;;;4.80;;
6388;SDS011;3227;42.654;23.360;2023-10-19T06:25:21;11.33;;;5.10;;
6388;SDS011;3227;42.654;23.360;2023-10-19T06:27:54;7.87;;;4.57;;
6388;SDS011;3227;42.654;23.360;2023-10-19T06:30:22;7.23;;;4.60;;
6388;SDS011;3227;42.654;23.360;2023-10-19T06:32:50;7.17;;;4.70;;
6388;SDS011;3227;42.654;23.360;2023-10-19T06:35:19;7.10;;;4.23;;
6388;SDS011;3227;42.654;23.360;2023-10-19T06:37:57;9.00;;;4.50;;
6388;SDS011;3227;42.654;23.360;2023-10-19T06:40:24;7.63;;;4.33;;
6388;SDS011;3227;42.654;23.360;2023-10-19T06:42:52;12.23;;;6.40;;
6388;SDS011;3227;42.654;23.360;2023-10-19T06:45:21;9.63;;;5.10;;
6388;SDS011;3227;42.654;23.360;2023-10-19T06:47:50;8.27;;;4.60;;
6388;SDS011;3227;42.654;23.360;2023-10-19T06:50:20;9.43;;;4.70;;
6388;SDS011;3227;42.654;23.360;2023-10-19T06:52:48;7.93;;;4.73;;
6388;SDS011;3227;42.654;23.360;2023-10-19T06:55:15;7.33;;;4.63;;
6388;SDS011;3227;42.654;23.360;2023-10-19T07:00:51;8.20;;;4.90;;
6388;SDS011;3227;42.654;23.360;2023-10-19T07:03:24;7.63;;;4.37;;
6388;SDS011;3227;42.654;23.360;2023-10-19T07:05:54;7.57;;;4.63;;
6388;SDS011;3227;42.654;23.360;2023-10-19T07:08:22;8.17;;;4.97;;
6388;SDS011;3227;42.654;23.360;2023-10-19T07:10:49;9.27;;;5.60;;
6388;SDS011;3227;42.654;23.360;2023-10-19T07:13:15;9.00;;;5.23;;
6388;SDS011;3227;42.654;23.360;2023-10-19T07:15:44;7.47;;;4.83;;
6388;SDS011;3227;42.654;23.360;2023-10-19T07:18:11;8.73;;;5.07;;
6388;SDS011;3227;42.654;23.360;2023-10-19T07:20:38;11.77;;;6.10;;
6388;SDS011;3227;42.654;23.360;2023-10-19T07:23:08;9.60;;;5.10;;
6388;SDS011;3227;42.654;23.360;2023-10-19T07:25:45;8.70;;;5.07;;
6388;SDS011;3227;42.654;23.360;2023-10-19T07:28:13;8.87;;;4.97;;
6388;SDS011;3227;42.654;23.360;2023-10-19T07:30:40;7.50;;;4.47;;
6388;SDS011;3227;42.654;23.360;2023-10-19T07:33:08;7.40;;;4.30;;
6388;SDS011;3227;42.654;23.360;2023-10-19T07:35:35;7.73;;;4.93;;
6388;SDS011;3227;42.654;23.360;2023-10-19T07:38:04;7.67;;;4.40;;
6388;SDS011;3227;42.654;23.360;2023-10-19T07:40:34;7.90;;;4.82;;
6388;SDS011;3227;42.654;23.360;2023-10-19T07:43:02;10.40;;;4.67;;
6388;SDS011;3227;42.654;23.360;2023-10-19T07:45:29;8.07;;;5.20;;
6388;SDS011;3227;42.654;23.360;2023-10-19T07:47:57;8.23;;;4.90;;
6388;SDS011;3227;42.654;23.360;2023-10-19T07:50:31;8.00;;;4.77;;
6388;SDS011;3227;42.654;23.360;2023-10-19T07:52:58;7.60;;;4.87;;
6388;SDS011;3227;42.654;23.360;2023-10-19T07:55:25;8.33;;;4.63;;
6388;SDS011;3227;42.654;23.360;2023-10-19T07:57:53;8.03;;;4.33;;
6388;SDS011;3227;42.654;23.360;2023-10-19T08:00:21;12.33;;;4.60;;
6388;SDS011;3227;42.654;23.360;2023-10-19T08:02:49;7.97;;;4.60;;
6388;SDS011;3227;42.654;23.360;2023-10-19T08:05:16;9.37;;;5.40;;
6388;SDS011;3227;42.654;23.360;2023-10-19T08:07:54;9.87;;;5.67;;
6388;SDS011;3227;42.654;23.360;2023-10-19T08:10:22;8.77;;;5.27;;
6388;SDS011;3227;42.654;23.360;2023-10-19T08:12:50;9.57;;;6.18;;
6388;SDS011;3227;42.654;23.360;2023-10-19T08:15:19;9.97;;;6.07;;
6388;SDS011;3227;42.654;23.360;2023-10-19T08:17:47;12.03;;;6.67;;
6388;SDS011;3227;42.654;23.360;2023-10-19T08:20:16;10.10;;;5.97;;
6388;SDS011;3227;42.654;23.360;2023-10-19T08:22:48;10.33;;;6.27;;
6388;SDS011;3227;42.654;23.360;2023-10-19T08:25:15;7.67;;;5.10;;
6388;SDS011;3227;42.654;23.360;2023-10-19T08:27:42;10.47;;;6.47;;
6388;SDS011;3227;42.654;23.360;2023-10-19T08:30:11;11.80;;;7.78;;
6388;SDS011;3227;42.654;23.360;2023-10-19T08:32:40;11.27;;;7.50;;
6388;SDS011;3227;42.654;23.360;2023-10-19T08:35:07;12.35;;;7.60;;
6388;SDS011;3227;42.654;23.360;2023-10-19T08:37:36;12.30;;;7.00;;
6388;SDS011;3227;42.654;23.360;2023-10-19T08:40:04;11.13;;;7.57;;
6388;SDS011;3227;42.654;23.360;2023-10-19T08:42:32;11.32;;;7.57;;
6388;SDS011;3227;42.654;23.360;2023-10-19T08:45:00;12.02;;;7.70;;
6388;SDS011;3227;42.654;23.360;2023-10-19T08:47:28;11.85;;;7.05;;
6388;SDS011;3227;42.654;23.360;2023-10-19T08:49:57;8.70;;;5.73;;
6388;SDS011;3227;42.654;23.360;2023-10-19T08:52:25;10.23;;;6.60;;
6388;SDS011;3227;42.654;23.360;2023-10-19T08:54:53;10.40;;;6.30;;
6388;SDS011;3227;42.654;23.360;2023-10-19T08:57:20;10.73;;;6.63;;
6388;SDS011;3227;42.654;23.360;2023-10-19T08:59:47;12.57;;;6.43;;
6388;SDS011;3227;42.654;23.360;2023-10-19T09:02:14;11.60;;;6.88;;
6388;SDS011;3227;42.654;23.360;2023-10-19T09:04:43;11.90;;;6.97;;
6388;SDS011;3227;42.654;23.360;2023-10-19T09:07:11;10.50;;;5.90;;
6388;SDS011;3227;42.654;23.360;2023-10-19T09:09:39;8.80;;;5.60;;
6388;SDS011;3227;42.654;23.360;2023-10-19T09:12:06;11.60;;;5.93;;
6388;SDS011;3227;42.654;23.360;2023-10-19T09:14:34;10.20;;;6.70;;
6388;SDS011;3227;42.654;23.360;2023-10-19T09:17:06;11.23;;;6.73;;
6388;SDS011;3227;42.654;23.360;2023-10-19T09:19:37;10.47;;;7.10;;
6388;SDS011;3227;42.654;23.360;2023-10-19T09:22:04;9.27;;;6.20;;
6388;SDS011;3227;42.654;23.360;2023-10-19T09:24:34;10.73;;;6.60;;
6388;SDS011;3227;42.654;23.360;2023-10-19T09:27:02;10.83;;;6.30;;
6388;SDS011;3227;42.654;23.360;2023-10-19T09:29:30;12.10;;;6.33;;
6388;SDS011;3227;42.654;23.360;2023-10-19T09:31:58;10.37;;;5.90;;
6388;SDS011;3227;42.654;23.360;2023-10-19T09:34:28;12.37;;;7.03;;
6388;SDS011;3227;42.654;23.360;2023-10-19T09:36:58;10.40;;;6.00;;
6388;SDS011;3227;42.654;23.360;2023-10-19T09:39:26;10.57;;;6.53;;
6388;SDS011;3227;42.654;23.360;2023-10-19T09:42:01;10.27;;;5.90;;
6388;SDS011;3227;42.654;23.360;2023-10-19T09:44:32;10.73;;;6.03;;
6388;SDS011;3227;42.654;23.360;2023-10-19T09:47:07;10.20;;;5.70;;
6388;SDS011;3227;42.654;23.360;2023-10-19T09:49:38;8.93;;;5.20;;
6388;SDS011;3227;42.654;23.360;2023-10-19T09:52:06;10.80;;;6.03;;
6388;SDS011;3227;42.654;23.360;2023-10-19T09:54:38;9.70;;;5.77;;
6388;SDS011;3227;42.654;23.360;2023-10-19T09:57:14;9.52;;;5.85;;
6388;SDS011;3227;42.654;23.360;2023-10-19T09:59:49;10.10;;;5.67;;
6388;SDS011;3227;42.654;23.360;2023-10-19T10:02:23;10.20;;;4.73;;
6388;SDS011;3227;42.654;23.360;2023-10-19T10:04:51;9.43;;;5.30;;
6388;SDS011;3227;42.654;23.360;2023-10-19T10:07:18;10.43;;;5.47;;
6388;SDS011;3227;42.654;23.360;2023-10-19T10:09:45;9.20;;;5.82;;
6388;SDS011;3227;42.654;23.360;2023-10-19T10:12:20;10.57;;;6.33;;
6388;SDS011;3227;42.654;23.360;2023-10-19T10:14:55;9.50;;;6.33;;
6388;SDS011;3227;42.654;23.360;2023-10-19T10:17:23;8.83;;;5.40;;
6388;SDS011;3227;42.654;23.360;2023-10-19T10:19:56;10.25;;;5.72;;
6388;SDS011;3227;42.654;23.360;2023-10-19T10:25:51;9.93;;;6.00;;
6388;SDS011;3227;42.654;23.360;2023-10-19T10:28:20;7.83;;;5.00;;
6388;SDS011;3227;42.654;23.360;2023-10-19T10:31:11;12.20;;;6.30;;
6388;SDS011;3227;42.654;23.360;2023-10-19T10:33:45;9.83;;;6.10;;
6388;SDS011;3227;42.654;23.360;2023-10-19T10:39:19;8.77;;;4.93;;
6388;SDS011;3227;42.654;23.360;2023-10-19T10:41:54;9.00;;;5.50;;
6388;SDS011;3227;42.654;23.360;2023-10-19T10:44:34;10.63;;;5.57;;
6388;SDS011;3227;42.654;23.360;2023-10-19T10:47:18;8.23;;;5.30;;
6388;SDS011;3227;42.654;23.360;2023-10-19T10:49:47;9.03;;;5.93;;
6388;SDS011;3227;42.654;23.360;2023-10-19T10:52:23;9.67;;;5.93;;
6388;SDS011;3227;42.654;23.360;2023-10-19T10:54:51;9.63;;;6.10;;
6388;SDS011;3227;42.654;23.360;2023-10-19T11:00:43;9.47;;;5.90;;
6388;SDS011;3227;42.654;23.360;2023-10-19T11:03:12;8.60;;;5.77;;
6388;SDS011;3227;42.654;23.360;2023-10-19T11:05:40;8.70;;;5.37;;
6388;SDS011;3227;42.654;23.360;2023-10-19T11:08:11;9.23;;;5.80;;
6388;SDS011;3227;42.654;23.360;2023-10-19T11:10:39;9.00;;;5.27;;
6388;SDS011;3227;42.654;23.360;2023-10-19T11:13:08;10.50;;;6.43;;
6388;SDS011;3227;42.654;23.360;2023-10-19T11:15:36;11.10;;;5.60;;
6388;SDS011;3227;42.654;23.360;2023-10-19T11:18:05;10.77;;;5.80;;
6388;SDS011;3227;42.654;23.360;2023-10-19T11:20:33;8.23;;;5.40;;
6388;SDS011;3227;42.654;23.360;2023-10-19T11:23:00;9.38;;;5.15;;
6388;SDS011;3227;42.654;23.360;2023-10-19T11:25:33;8.40;;;5.10;;
6388;SDS011;3227;42.654;23.360;2023-10-19T11:28:04;10.97;;;5.57;;
6388;SDS011;3227;42.654;23.360;2023-10-19T11:30:44;8.80;;;5.27;;
6388;SDS011;3227;42.654;23.360;2023-10-19T11:33:15;8.60;;;5.27;;
6388;SDS011;3227;42.654;23.360;2023-10-19T11:35:52;9.47;;;5.77;;
6388;SDS011;3227;42.654;23.360;2023-10-19T11:38:19;8.93;;;5.88;;
6388;SDS011;3227;42.654;23.360;2023-10-19T11:40:46;9.10;;;5.95;;
6388;SDS011;3227;42.654;23.360;2023-10-19T11:43:13;7.40;;;4.63;;
6388;SDS011;3227;42.654;23.360;2023-10-19T11:45:39;8.07;;;4.80;;
6388;SDS011;3227;42.654;23.360;2023-10-19T11:48:07;8.80;;;5.00;;
6388;SDS011;3227;42.654;23.360;2023-10-19T11:50:35;9.80;;;6.00;;
6388;SDS011;3227;42.654;23.360;2023-10-19T11:53:02;9.20;;;5.37;;
6388;SDS011;3227;42.654;23.360;2023-10-19T11:55:30;9.88;;;6.22;;
6388;SDS011;3227;42.654;23.360;2023-10-19T11:57:57;9.02;;;5.43;;
6388;SDS011;3227;42.654;23.360;2023-10-19T12:00:24;9.10;;;5.43;;
6388;SDS011;3227;42.654;23.360;2023-10-19T12:02:58;9.30;;;5.80;;
6388;SDS011;3227;42.654;23.360;2023-10-19T12:05:25;8.07;;;5.30;;
6388;SDS011;3227;42.654;23.360;2023-10-19T12:07:53;8.20;;;5.10;;
6388;SDS011;3227;42.654;23.360;2023-10-19T12:10:21;9.13;;;5.32;;
6388;SDS011;3227;42.654;23.360;2023-10-19T12:12:57;8.45;;;5.10;;
6388;SDS011;3227;42.654;23.360;2023-10-19T12:15:24;9.48;;;5.28;;
6388;SDS011;3227;42.654;23.360;2023-10-19T12:17:50;8.60;;;5.30;;
6388;SDS011;3227;42.654;23.360;2023-10-19T12:20:19;10.13;;;5.47;;
6388;SDS011;3227;42.654;23.360;2023-10-19T12:22:47;8.73;;;4.90;;
6388;SDS011;3227;42.654;23.360;2023-10-19T12:25:18;8.27;;;4.80;;
6388;SDS011;3227;42.654;23.360;2023-10-19T12:27:45;8.93;;;5.65;;
6388;SDS011;3227;42.654;23.360;2023-10-19T12:30:12;7.93;;;5.07;;
6388;SDS011;3227;42.654;23.360;2023-10-19T12:32:45;9.02;;;5.75;;
6388;SDS011;3227;42.654;23.360;2023-10-19T12:35:14;8.98;;;5.45;;
6388;SDS011;3227;42.654;23.360;2023-10-19T12:37:59;8.27;;;5.20;;
6388;SDS011;3227;42.654;23.360;2023-10-19T12:40:28;8.80;;;5.20;;
6388;SDS011;3227;42.654;23.360;2023-10-19T12:42:56;7.65;;;4.95;;
6388;SDS011;3227;42.654;23.360;2023-10-19T12:45:24;9.05;;;5.40;;
6388;SDS011;3227;42.654;23.360;2023-10-19T12:47:51;7.68;;;4.90;;
6388;SDS011;3227;42.654;23.360;2023-10-19T12:50:18;8.07;;;4.70;;
6388;SDS011;3227;42.654;23.360;2023-10-19T12:52:48;8.50;;;4.18;;
6388;SDS011;3227;42.654;23.360;2023-10-19T12:55:15;7.90;;;4.55;;
6388;SDS011;3227;42.654;23.360;2023-10-19T12:57:44;9.23;;;4.78;;
6388;SDS011;3227;42.654;23.360;2023-10-19T13:00:11;6.75;;;4.25;;
6388;SDS011;3227;42.654;23.360;2023-10-19T13:02:51;6.90;;;4.18;;
6388;SDS011;3227;42.654;23.360;2023-10-19T13:05:25;7.47;;;4.35;;
6388;SDS011;3227;42.654;23.360;2023-10-19T13:07:52;7.93;;;4.40;;
6388;SDS011;3227;42.654;23.360;2023-10-19T13:10:23;7.43;;;4.45;;
6388;SDS011;3227;42.654;23.360;2023-10-19T13:12:58;6.28;;;4.15;;
6388;SDS011;3227;42.654;23.360;2023-10-19T13:15:28;8.63;;;4.15;;
6388;SDS011;3227;42.654;23.360;2023-10-19T13:17:56;6.85;;;4.10;;
6388;SDS011;3227;42.654;23.360;2023-10-19T13:20:25;7.70;;;4.22;;
6388;SDS011;3227;42.654;23.360;2023-10-19T13:22:51;7.18;;;4.18;;
6388;SDS011;3227;42.654;23.360;2023-10-19T13:25:18;6.68;;;3.85;;
6388;SDS011;3227;42.654;23.360;2023-10-19T13:27:53;6.15;;;3.38;;
6388;SDS011;3227;42.654;23.360;2023-10-19T13:30:22;7.68;;;3.92;;
6388;SDS011;3227;42.654;23.360;2023-10-19T13:32:49;7.85;;;4.13;;
6388;SDS011;3227;42.654;23.360;2023-10-19T13:35:16;7.38;;;4.07;;
6388;SDS011;3227;42.654;23.360;2023-10-19T13:37:44;7.35;;;3.92;;
6388;SDS011;3227;42.654;23.360;2023-10-19T13:40:11;5.97;;;3.42;;
6388;SDS011;3227;42.654;23.360;2023-10-19T13:42:38;7.38;;;3.95;;
6388;SDS011;3227;42.654;23.360;2023-10-19T13:45:07;7.82;;;3.85;;
6388;SDS011;3227;42.654;23.360;2023-10-19T13:47:41;8.15;;;4.10;;
6388;SDS011;3227;42.654;23.360;2023-10-19T13:50:08;6.35;;;3.80;;
6388;SDS011;3227;42.654;23.360;2023-10-19T13:52:36;6.95;;;3.78;;
6388;SDS011;3227;42.654;23.360;2023-10-19T13:55:05;6.45;;;3.78;;
6388;SDS011;3227;42.654;23.360;2023-10-19T13:57:33;7.40;;;4.25;;
6388;SDS011;3227;42.654;23.360;2023-10-19T14:00:00;5.93;;;3.38;;
6388;SDS011;3227;42.654;23.360;2023-10-19T14:02:27;6.90;;;4.00;;
6388;SDS011;3227;42.654;23.360;2023-10-19T14:04:55;6.65;;;3.72;;
6388;SDS011;3227;42.654;23.360;2023-10-19T14:07:25;8.82;;;5.28;;
6388;SDS011;3227;42.654;23.360;2023-10-19T14:09:52;13.55;;;7.38;;
6388;SDS011;3227;42.654;23.360;2023-10-19T14:12:19;10.38;;;5.63;;
6388;SDS011;3227;42.654;23.360;2023-10-19T14:14:46;8.20;;;4.60;;
6388;SDS011;3227;42.654;23.360;2023-10-19T14:17:12;10.52;;;4.68;;
6388;SDS011;3227;42.654;23.360;2023-10-19T14:19:41;8.05;;;4.65;;
6388;SDS011;3227;42.654;23.360;2023-10-19T14:22:11;8.40;;;4.95;;
6388;SDS011;3227;42.654;23.360;2023-10-19T14:24:38;9.82;;;4.28;;
6388;SDS011;3227;42.654;23.360;2023-10-19T14:27:05;6.18;;;3.65;;
6388;SDS011;3227;42.654;23.360;2023-10-19T14:29:34;7.60;;;3.95;;
6388;SDS011;3227;42.654;23.360;2023-10-19T14:32:00;6.13;;;3.75;;
6388;SDS011;3227;42.654;23.360;2023-10-19T14:34:28;8.95;;;3.97;;
6388;SDS011;3227;42.654;23.360;2023-10-19T14:39:48;7.35;;;3.67;;
6388;SDS011;3227;42.654;23.360;2023-10-19T14:42:14;6.57;;;3.90;;
6388;SDS011;3227;42.654;23.360;2023-10-19T14:44:41;7.95;;;4.00;;
6388;SDS011;3227;42.654;23.360;2023-10-19T14:47:08;8.13;;;3.50;;
6388;SDS011;3227;42.654;23.360;2023-10-19T14:49:35;6.28;;;3.53;;
6388;SDS011;3227;42.654;23.360;2023-10-19T14:52:01;8.27;;;4.23;;
6388;SDS011;3227;42.654;23.360;2023-10-19T14:54:30;8.20;;;3.92;;
6388;SDS011;3227;42.654;23.360;2023-10-19T14:56:57;8.05;;;3.72;;
6388;SDS011;3227;42.654;23.360;2023-10-19T14:59:23;5.97;;;3.55;;
6388;SDS011;3227;42.654;23.360;2023-10-19T15:01:50;8.60;;;3.90;;
6388;SDS011;3227;42.654;23.360;2023-10-19T15:04:18;8.88;;;4.00;;
6388;SDS011;3227;42.654;23.360;2023-10-19T15:06:45;8.27;;;3.67;;
6388;SDS011;3227;42.654;23.360;2023-10-19T15:09:12;9.65;;;3.67;;
6388;SDS011;3227;42.654;23.360;2023-10-19T15:11:47;6.47;;;3.67;;
6388;SDS011;3227;42.654;23.360;2023-10-19T15:14:13;8.55;;;4.55;;
6388;SDS011;3227;42.654;23.360;2023-10-19T15:16:41;8.57;;;4.35;;
6388;SDS011;3227;42.654;23.360;2023-10-19T15:19:09;6.75;;;4.00;;
6388;SDS011;3227;42.654;23.360;2023-10-19T15:21:37;8.10;;;4.50;;
6388;SDS011;3227;42.654;23.360;2023-10-19T15:24:04;7.10;;;4.30;;